LFOH/LEH METAR and TAF weather

Enter ICAO airport designator
Station Type Date Time Source
LFOH METAR 2022/01/25 04:30 UTC NOAA

LFOH 250430Z AUTO 11004KT 1300 1200 R22/1600D BR NSC M01/M01 Q1032


Station Type Date Time Source
LFOH Decoded METAR 2022/01/25 04:30 UTC NOAA

La Heve, France (LFOH) 49-31N 000-04E 103M
Jan 24, 2022 - 11:30 PM EST / 2022.01.25 0430 UTC
Wind: from the ESE (110 degrees) at 5 MPH (4 KT):0
Visibility: less than 1 mile:0
Weather: mist
Temperature: 30 F (-1 C)
Windchill: 24 F (-4 C):1
Dew Point: 30 F (-1 C)
Relative Humidity: 100%
Pressure (altimeter): 30.47 in. Hg (1032 hPa)
ob: LFOH 250430Z AUTO 11004KT 1300 1200 R22/1600D BR NSC M01/M01 Q1032
cycle: 4

Station Type Date Time Source
LFOH TAF 2022/01/24 20:12 UTC NOAA

TAF TAF LFOH 241901Z 2420/2512 CNL

Example: see airport list